Wisdom, Montana
Current Conditions -  °F | °C
As of 4:53 PM on Wednesday 28 Jan 2015 (Local Time) from KDLN Reporting Station
Clear Clear  
Wind Chill: 42°   Ceiling: Unl
Heat Index: 45°   Visibility: 10mi
Dew Point: 21°   Wind: 6mph
Humidity: 39%   Direction: 180°S
Pressure: 30.25"   Gusts: NA
Location:  45.61°N, 113.44°W
Report Text: KDLN 282353Z AUTO 18005KT 10SM CLR 07/M06 A3025 RMK AO2 SLP242 T00721061 10094 20044 53009
Loading
Personal Weather Stations






























Interactive Weather Map New forecast layout! Learn more

10-Day Weather Forecast

Advertisements
Track Severe Weather on mobile